createdAt,value
2018-12-16T00:01:15.788Z,15.15
2018-12-16T00:03:44.676Z,13.83
2018-12-16T00:06:12.976Z,15.32
2018-12-16T00:08:41.393Z,16.12
2018-12-16T00:11:09.854Z,17.50
2018-12-16T00:13:38.297Z,14.93
2018-12-16T00:16:06.991Z,14.35
2018-12-16T00:18:34.390Z,16.30
2018-12-16T00:21:02.931Z,14.23
2018-12-16T00:23:31.401Z,14.33
2018-12-16T00:25:59.809Z,14.83
2018-12-16T00:28:29.060Z,15.32
2018-12-16T00:30:56.680Z,12.00
2018-12-16T00:33:26.261Z,15.80
2018-12-16T00:35:54.997Z,16.48
2018-12-16T00:38:23.312Z,16.97
2018-12-16T00:40:51.709Z,14.93
2018-12-16T00:43:20.348Z,16.60
2018-12-16T00:45:49.053Z,12.45
2018-12-16T00:48:17.364Z,14.05
2018-12-16T00:50:45.872Z,17.90
2018-12-16T00:53:14.308Z,16.30
2018-12-16T00:55:42.994Z,15.40
2018-12-16T00:58:11.470Z,16.70
2018-12-16T01:00:40.022Z,15.98
2018-12-16T01:03:08.514Z,17.25
2018-12-16T01:05:37.029Z,13.55
2018-12-16T01:08:05.773Z,14.90
2018-12-16T01:10:34.193Z,16.55
2018-12-16T01:13:02.516Z,15.88
2018-12-16T01:15:30.932Z,14.28
2018-12-16T01:18:00.133Z,14.28
2018-12-16T01:20:27.633Z,16.60
2018-12-16T01:22:56.143Z,12.70
2018-12-16T01:25:24.593Z,15.32
2018-12-16T01:27:52.981Z,16.52
2018-12-16T01:30:21.635Z,16.80
2018-12-16T01:32:50.216Z,14.50
2018-12-16T01:35:18.591Z,13.93
2018-12-16T01:37:47.216Z,15.63
2018-12-16T01:40:15.213Z,14.28
2018-12-16T01:42:43.616Z,14.35
2018-12-16T01:45:12.249Z,13.13
2018-12-16T01:47:40.957Z,15.80
2018-12-16T01:50:09.667Z,15.38
2018-12-16T01:52:37.025Z,15.85
2018-12-16T01:55:07.376Z,17.85
2018-12-16T01:57:35.929Z,14.13
2018-12-16T02:00:05.233Z,16.00
2018-12-16T02:02:37.526Z,15.60
2018-12-16T02:05:05.102Z,15.95
2018-12-16T02:07:32.441Z,16.07
2018-12-16T02:10:00.000Z,17.62
2018-12-16T02:12:27.341Z,13.75
2018-12-16T02:14:55.915Z,16.02
2018-12-16T02:17:24.354Z,15.18
2018-12-16T02:19:53.049Z,16.02
2018-12-16T02:22:21.477Z,13.25
2018-12-16T02:24:48.809Z,17.37
2018-12-16T02:27:17.226Z,16.23
2018-12-16T02:29:45.689Z,13.65
2018-12-16T02:32:14.069Z,16.70
2018-12-16T02:34:42.473Z,16.75
2018-12-16T02:37:10.906Z,17.57
2018-12-16T02:39:39.333Z,14.33
2018-12-16T02:42:08.137Z,16.02
2018-12-16T02:44:36.715Z,16.00
2018-12-16T02:47:04.146Z,15.05
2018-12-16T02:49:32.549Z,17.85
2018-12-16T02:52:01.012Z,14.43
2018-12-16T02:54:29.353Z,17.73
2018-12-16T02:56:57.950Z,14.23
2018-12-16T02:59:26.651Z,17.20
2018-12-16T03:01:54.259Z,18.70
2018-12-16T03:04:29.780Z,19.00
2018-12-16T03:06:57.590Z,17.48
2018-12-16T03:09:25.143Z,16.35
2018-12-16T03:11:52.518Z,15.80
2018-12-16T03:14:19.793Z,20.55
2018-12-16T03:16:47.100Z,18.37
2018-12-16T03:19:14.394Z,16.62
2018-12-16T03:21:41.841Z,19.27
2018-12-16T03:24:10.345Z,14.55
2018-12-16T03:26:39.001Z,19.50
2018-12-16T03:29:06.377Z,15.75
2018-12-16T03:31:34.817Z,18.32
2018-12-16T03:34:03.272Z,17.10
2018-12-16T03:36:31.617Z,17.15
2018-12-16T03:39:00.466Z,17.60
2018-12-16T03:41:28.874Z,17.55
2018-12-16T03:43:57.495Z,17.27
2018-12-16T03:46:26.151Z,16.90
2018-12-16T03:48:53.521Z,18.65
2018-12-16T03:51:21.910Z,18.48
2018-12-16T03:53:50.219Z,17.30
2018-12-16T03:56:18.619Z,18.35
2018-12-16T03:58:58.711Z,13.45
2018-12-16T04:01:27.237Z,18.67
2018-12-16T04:03:55.575Z,18.23
2018-12-16T04:06:23.991Z,17.73
2018-12-16T04:08:53.107Z,18.32
2018-12-16T04:11:20.412Z,18.17
2018-12-16T04:13:48.841Z,19.10
2018-12-16T04:16:17.545Z,18.45
2018-12-16T04:18:45.952Z,18.90
2018-12-16T04:21:14.264Z,24.02
2018-12-16T04:23:42.754Z,19.20
2018-12-16T04:26:11.213Z,17.57
2018-12-16T04:28:39.373Z,18.10
2018-12-16T04:31:07.952Z,19.12
2018-12-16T04:33:36.466Z,18.37
2018-12-16T04:36:04.922Z,17.85
2018-12-16T04:38:33.241Z,20.80
2018-12-16T04:41:01.804Z,20.23
2018-12-16T04:43:30.262Z,19.92
2018-12-16T04:45:58.801Z,20.50
2018-12-16T04:48:26.218Z,22.80
2018-12-16T04:50:54.709Z,22.10
2018-12-16T04:53:23.129Z,19.50
2018-12-16T04:55:51.465Z,22.77
2018-12-16T04:58:19.901Z,21.60
2018-12-16T05:00:48.273Z,21.80
2018-12-16T05:03:16.747Z,20.92
2018-12-16T05:05:45.162Z,20.17
2018-12-16T05:08:13.766Z,23.50
2018-12-16T05:10:42.273Z,20.12
2018-12-16T05:13:10.646Z,20.55
2018-12-16T05:15:39.190Z,20.23
2018-12-16T05:18:06.741Z,20.02
2018-12-16T05:20:35.257Z,20.97
2018-12-16T05:23:03.709Z,20.88
2018-12-16T05:25:32.550Z,23.02
2018-12-16T05:28:00.959Z,19.02
2018-12-16T05:30:29.424Z,18.87
2018-12-16T05:32:57.873Z,21.75
2018-12-16T05:35:26.349Z,22.35
2018-12-16T05:37:54.682Z,18.15
2018-12-16T05:40:23.178Z,21.77
2018-12-16T05:42:51.740Z,22.55
2018-12-16T05:45:20.242Z,21.55
2018-12-16T05:47:48.675Z,21.42
2018-12-16T05:50:17.150Z,18.37
2018-12-16T05:52:45.609Z,20.52
2018-12-16T05:55:14.109Z,20.65
2018-12-16T05:57:42.508Z,20.32
2018-12-16T06:00:11.356Z,20.15
2018-12-16T06:02:39.821Z,20.68
2018-12-16T06:05:08.430Z,22.85
2018-12-16T06:07:36.949Z,19.67
2018-12-16T06:10:05.996Z,22.90
2018-12-16T06:12:34.525Z,22.35
2018-12-16T06:15:03.285Z,22.40
2018-12-16T06:17:31.242Z,20.35
2018-12-16T06:19:58.670Z,20.45
2018-12-16T06:22:27.075Z,27.17
2018-12-16T06:24:55.637Z,19.07
2018-12-16T06:27:24.452Z,22.98
2018-12-16T06:29:53.123Z,22.93
2018-12-16T06:32:21.571Z,22.10
2018-12-16T06:34:49.969Z,23.12
2018-12-16T06:37:18.528Z,21.95
2018-12-16T06:39:47.049Z,19.90
2018-12-16T06:42:14.357Z,23.70
2018-12-16T06:44:42.761Z,21.25
2018-12-16T06:47:11.202Z,22.70
2018-12-16T06:49:39.654Z,20.68
2018-12-16T06:52:08.589Z,23.75
2018-12-16T06:54:37.059Z,21.30
2018-12-16T06:57:04.369Z,22.90
2018-12-16T06:59:32.786Z,24.15
2018-12-16T07:02:01.357Z,25.65
2018-12-16T07:04:29.777Z,22.22
2018-12-16T07:06:58.105Z,23.15
2018-12-16T07:09:26.531Z,23.55
2018-12-16T07:11:54.938Z,22.85
2018-12-16T07:14:23.562Z,21.52
2018-12-16T07:16:51.427Z,20.65
2018-12-16T07:19:19.963Z,21.42
2018-12-16T07:21:48.413Z,22.20
2018-12-16T07:24:16.942Z,23.75
2018-12-16T07:26:45.676Z,21.57
2018-12-16T07:29:13.932Z,21.27
2018-12-16T07:31:41.339Z,23.05
2018-12-16T07:34:09.654Z,19.57
2018-12-16T07:36:38.321Z,25.25
2018-12-16T07:39:07.178Z,21.85
2018-12-16T07:41:36.965Z,22.55
2018-12-16T07:44:04.429Z,21.80
2018-12-16T07:46:32.932Z,25.20
2018-12-16T07:49:01.614Z,23.30
2018-12-16T07:51:30.077Z,24.05
2018-12-16T07:53:57.448Z,21.93
2018-12-16T07:56:25.989Z,20.77
2018-12-16T07:58:54.618Z,20.88
2018-12-16T08:01:23.381Z,23.05
2018-12-16T08:03:51.826Z,26.82
2018-12-16T08:06:19.134Z,23.50
2018-12-16T08:08:47.429Z,25.60
2018-12-16T08:11:15.836Z,25.23
2018-12-16T08:13:44.256Z,27.13
2018-12-16T08:16:13.161Z,22.87
2018-12-16T08:18:41.793Z,20.45
2018-12-16T08:21:10.460Z,25.60
2018-12-16T08:23:38.913Z,22.22
2018-12-16T08:26:07.617Z,23.10
2018-12-16T08:28:35.040Z,24.18
2018-12-16T08:31:03.537Z,21.50
2018-12-16T08:33:32.009Z,22.60
2018-12-16T08:36:00.793Z,22.05
2018-12-16T08:38:29.238Z,26.02
2018-12-16T08:41:00.477Z,23.32
2018-12-16T08:43:27.832Z,21.93
2018-12-16T08:45:55.278Z,25.52
2018-12-16T08:48:22.597Z,26.62
2018-12-16T08:50:51.031Z,21.80
2018-12-16T08:53:19.806Z,25.15
2018-12-16T08:55:47.147Z,23.75
2018-12-16T08:58:15.597Z,25.45
2018-12-16T09:00:44.067Z,23.70
2018-12-16T09:03:12.509Z,26.30
2018-12-16T09:05:41.322Z,24.52
2018-12-16T09:08:09.754Z,22.37
2018-12-16T09:10:38.443Z,24.55
2018-12-16T09:13:06.982Z,27.37
2018-12-16T09:15:34.345Z,29.35
2018-12-16T09:18:03.671Z,25.43
2018-12-16T09:20:32.217Z,24.15
2018-12-16T09:22:59.675Z,31.05
2018-12-16T09:25:28.126Z,26.52
2018-12-16T09:27:57.073Z,27.85
2018-12-16T09:30:25.642Z,25.97
2018-12-16T09:32:53.023Z,30.77
2018-12-16T09:35:21.558Z,26.68
2018-12-16T09:37:49.995Z,29.15
2018-12-16T09:40:18.426Z,23.27
2018-12-16T09:42:46.870Z,29.05
2018-12-16T09:45:15.615Z,27.25
2018-12-16T09:47:43.366Z,27.90
2018-12-16T09:50:11.933Z,25.25
2018-12-16T09:52:40.399Z,24.15
2018-12-16T09:55:09.242Z,25.00
2018-12-16T09:57:37.664Z,28.52
2018-12-16T10:00:08.072Z,25.85
2018-12-16T10:02:36.397Z,27.05
2018-12-16T10:05:05.380Z,25.37
2018-12-16T10:07:33.873Z,25.97
2018-12-16T10:10:04.857Z,25.20
2018-12-16T10:12:32.277Z,26.82
2018-12-16T10:14:59.594Z,22.58
2018-12-16T10:17:26.897Z,25.32
2018-12-16T10:19:55.260Z,24.37
2018-12-16T10:22:23.691Z,28.95
2018-12-16T10:24:52.325Z,28.70
2018-12-16T10:27:20.802Z,27.67
2018-12-16T10:29:49.341Z,24.98
2018-12-16T10:32:17.676Z,23.45
2018-12-16T10:34:46.107Z,25.45
2018-12-16T10:37:14.520Z,22.87
2018-12-16T10:39:43.312Z,25.20
2018-12-16T10:42:11.720Z,23.95
2018-12-16T10:44:40.289Z,23.60
2018-12-16T10:47:08.739Z,28.27
2018-12-16T10:49:37.162Z,24.90
2018-12-16T10:52:04.465Z,27.17
2018-12-16T10:54:32.870Z,22.58
2018-12-16T10:57:01.273Z,24.35
2018-12-16T10:59:29.781Z,23.65
2018-12-16T11:01:58.213Z,23.60
2018-12-16T11:04:26.895Z,25.23
2018-12-16T11:06:55.448Z,28.32
2018-12-16T11:09:23.953Z,23.77
2018-12-16T11:11:52.357Z,25.02
2018-12-16T11:14:20.757Z,28.27
2018-12-16T11:16:49.265Z,28.20
2018-12-16T11:19:17.645Z,24.77
2018-12-16T11:21:46.198Z,22.52
2018-12-16T11:24:14.758Z,26.93
2018-12-16T11:26:42.219Z,27.55
2018-12-16T11:29:15.929Z,28.85
2018-12-16T11:31:44.466Z,25.43
2018-12-16T11:34:12.913Z,30.68
2018-12-16T11:36:41.498Z,28.47
2018-12-16T11:39:10.130Z,26.33
2018-12-16T11:41:38.731Z,30.27
2018-12-16T11:44:07.351Z,27.98
2018-12-16T11:46:35.978Z,30.75
2018-12-16T11:49:04.480Z,28.65
2018-12-16T11:51:33.134Z,27.42
2018-12-16T11:54:01.550Z,28.87
2018-12-16T11:56:29.895Z,26.62
2018-12-16T11:58:58.552Z,25.35
2018-12-16T12:01:25.906Z,29.02
2018-12-16T12:03:54.398Z,25.52
2018-12-16T12:06:22.904Z,26.62
2018-12-16T12:08:51.452Z,33.60
2018-12-16T12:11:19.828Z,27.67
2018-12-16T12:13:48.213Z,24.25
2018-12-16T12:16:16.613Z,28.02
2018-12-16T12:18:45.062Z,27.25
2018-12-16T12:21:13.485Z,30.90
2018-12-16T12:23:41.957Z,26.37
2018-12-16T12:26:09.343Z,26.05
2018-12-16T12:28:38.171Z,33.60
2018-12-16T12:31:06.831Z,28.67
2018-12-16T12:33:35.441Z,33.33
2018-12-16T12:36:03.864Z,29.90
2018-12-16T12:38:32.277Z,33.02
2018-12-16T12:41:00.778Z,28.38
2018-12-16T12:43:29.233Z,30.12
2018-12-16T12:45:57.522Z,32.15
2018-12-16T12:48:25.906Z,31.57
2018-12-16T12:50:54.363Z,26.55
2018-12-16T12:53:22.672Z,30.40
2018-12-16T12:55:55.731Z,29.80
2018-12-16T12:58:23.131Z,34.60
2018-12-16T13:00:50.449Z,27.40
2018-12-16T13:03:17.852Z,31.68
2018-12-16T13:05:46.300Z,27.17
2018-12-16T13:08:14.812Z,32.65
2018-12-16T13:10:43.349Z,30.57
2018-12-16T13:13:11.818Z,29.18
2018-12-16T13:15:40.227Z,26.33
2018-12-16T13:18:08.721Z,27.02
2018-12-16T13:20:36.004Z,32.15
2018-12-16T13:23:04.472Z,32.15
2018-12-16T13:25:44.574Z,29.25
2018-12-16T13:28:13.015Z,29.45
2018-12-16T13:30:41.678Z,32.55
2018-12-16T13:33:10.062Z,35.30
2018-12-16T13:35:39.490Z,28.92
2018-12-16T13:38:08.087Z,31.60
2018-12-16T13:40:36.484Z,34.35
2018-12-16T13:43:05.893Z,30.97
2018-12-16T13:45:33.294Z,27.65
2018-12-16T13:48:01.880Z,34.40
2018-12-16T13:50:30.269Z,27.90
2018-12-16T13:52:58.605Z,34.08
2018-12-16T13:55:27.161Z,37.33
2018-12-16T13:57:56.073Z,33.58
2018-12-16T14:00:24.497Z,32.35
2018-12-16T14:02:52.035Z,33.33
2018-12-16T14:05:21.002Z,27.62
2018-12-16T14:07:50.029Z,35.98
2018-12-16T14:10:17.518Z,41.15
2018-12-16T14:12:45.914Z,36.80
2018-12-16T14:17:46.797Z,30.15
2018-12-16T14:20:14.068Z,32.25
2018-12-16T14:22:41.582Z,31.95
2018-12-16T14:25:09.085Z,32.80
2018-12-16T14:27:37.547Z,31.77
2018-12-16T14:30:08.283Z,39.33
2018-12-16T14:32:36.841Z,35.00
2018-12-16T14:35:06.040Z,33.00
2018-12-16T14:37:34.614Z,31.30
2018-12-16T14:40:04.217Z,32.60
2018-12-16T14:42:32.647Z,32.60
2018-12-16T14:45:00.951Z,34.05
2018-12-16T14:47:29.297Z,32.60
2018-12-16T14:49:57.697Z,29.12
2018-12-16T14:52:26.216Z,34.70
2018-12-16T14:54:54.605Z,32.13
2018-12-16T14:57:23.002Z,31.02
2018-12-16T14:59:52.101Z,33.15
2018-12-16T15:02:20.509Z,38.10
2018-12-16T15:04:48.848Z,35.52
2018-12-16T15:07:17.196Z,37.93
2018-12-16T15:09:45.685Z,33.85
2018-12-16T15:12:14.059Z,36.35
2018-12-16T15:14:42.643Z,37.63
2018-12-16T15:17:11.305Z,34.20
2018-12-16T15:19:39.731Z,35.52
2018-12-16T15:22:08.279Z,41.40
2018-12-16T15:24:36.714Z,37.10
2018-12-16T15:27:05.113Z,39.92
2018-12-16T15:29:33.569Z,35.43
2018-12-16T15:32:01.949Z,33.25
2018-12-16T15:34:30.409Z,39.03
2018-12-16T15:36:58.842Z,33.63
2018-12-16T15:39:27.644Z,38.05
2018-12-16T15:41:56.157Z,44.48
2018-12-16T15:44:24.535Z,46.05
2018-12-16T15:46:53.052Z,36.55
2018-12-16T15:49:21.444Z,40.40
2018-12-16T15:51:49.914Z,35.38
2018-12-16T15:54:19.433Z,38.08
2018-12-16T15:56:46.897Z,43.05
2018-12-16T15:59:14.197Z,38.38
2018-12-16T16:01:42.697Z,38.95
2018-12-16T16:04:11.319Z,35.28
2018-12-16T16:06:39.970Z,42.20
2018-12-16T16:09:08.518Z,43.05
2018-12-16T16:11:36.935Z,37.28
2018-12-16T16:14:05.466Z,39.38
2018-12-16T16:16:34.088Z,40.98
2018-12-16T16:19:02.660Z,36.33
2018-12-16T16:21:31.067Z,40.40
2018-12-16T16:23:59.470Z,40.15
2018-12-16T16:26:28.156Z,41.08
2018-12-16T16:28:55.495Z,37.65
2018-12-16T16:31:24.058Z,39.05
2018-12-16T16:33:52.615Z,36.20
2018-12-16T16:36:21.050Z,35.33
2018-12-16T16:38:49.494Z,38.90
2018-12-16T16:41:17.813Z,37.38
2018-12-16T16:43:46.187Z,35.95
2018-12-16T16:46:14.944Z,42.40
2018-12-16T16:48:43.375Z,36.55
2018-12-16T16:51:11.868Z,38.05
2018-12-16T16:53:40.255Z,36.50
2018-12-16T16:56:08.673Z,39.35
2018-12-16T16:58:37.206Z,37.28
2018-12-16T17:01:06.033Z,32.95
2018-12-16T17:03:34.651Z,31.95
2018-12-16T17:06:03.208Z,41.37
2018-12-16T17:08:31.552Z,41.23
2018-12-16T17:11:00.517Z,33.45
2018-12-16T17:13:29.731Z,41.05
2018-12-16T17:15:56.997Z,34.83
2018-12-16T17:18:25.462Z,32.98
2018-12-16T17:20:54.001Z,36.55
2018-12-16T17:23:22.404Z,30.65
2018-12-16T17:25:51.007Z,33.92
2018-12-16T17:28:20.298Z,39.35
2018-12-16T17:30:47.606Z,27.75
2018-12-16T17:33:15.597Z,34.00
2018-12-16T17:35:44.125Z,30.85
2018-12-16T17:38:12.886Z,32.63
2018-12-16T17:40:41.413Z,32.17
2018-12-16T17:43:08.780Z,32.40
2018-12-16T17:45:37.205Z,33.63
2018-12-16T17:48:05.725Z,36.42
2018-12-16T17:50:34.101Z,29.20
2018-12-16T17:53:02.552Z,34.33
2018-12-16T17:55:30.968Z,35.17
2018-12-16T17:57:59.514Z,37.73
2018-12-16T18:00:27.941Z,34.83
2018-12-16T18:02:56.709Z,32.80
2018-12-16T18:05:25.120Z,34.35
2018-12-16T18:07:53.508Z,28.55
2018-12-16T18:10:22.161Z,33.50
2018-12-16T18:12:49.450Z,34.67
2018-12-16T18:15:17.997Z,29.25
2018-12-16T18:17:46.351Z,37.48
2018-12-16T18:20:14.986Z,31.12
2018-12-16T18:22:43.506Z,31.90
2018-12-16T18:25:12.004Z,27.50
2018-12-16T18:27:40.381Z,31.57
2018-12-16T18:30:11.224Z,30.60
2018-12-16T18:32:39.810Z,31.48
2018-12-16T18:35:08.447Z,29.65
2018-12-16T18:37:35.894Z,32.73
2018-12-16T18:40:04.761Z,28.52
2018-12-16T18:42:39.011Z,33.40
2018-12-16T18:45:06.659Z,26.45
2018-12-16T18:47:34.092Z,35.23
2018-12-16T18:50:01.477Z,33.20
2018-12-16T18:52:28.769Z,30.97
2018-12-16T18:54:56.049Z,33.73
2018-12-16T18:57:23.590Z,28.95
2018-12-16T18:59:52.193Z,31.23
2018-12-16T19:02:20.573Z,29.32
2018-12-16T19:04:49.084Z,30.37
2018-12-16T19:07:22.135Z,36.63
2018-12-16T19:09:49.396Z,32.50
2018-12-16T19:12:16.652Z,32.25
2018-12-16T19:14:44.506Z,34.05
2018-12-16T19:17:11.992Z,33.67
2018-12-16T19:19:39.341Z,33.53
2018-12-16T19:22:07.990Z,42.17
2018-12-16T19:24:36.562Z,32.55
2018-12-16T19:27:05.385Z,41.83
2018-12-16T19:29:33.793Z,42.48
2018-12-16T19:32:02.258Z,31.87
2018-12-16T19:34:29.548Z,39.50
2018-12-16T19:36:57.904Z,42.48
2018-12-16T19:39:26.364Z,34.45
2018-12-16T19:41:55.087Z,32.45
2018-12-16T19:44:23.666Z,30.97
2018-12-16T19:46:52.098Z,31.12
2018-12-16T19:49:20.866Z,42.98
2018-12-16T19:51:49.196Z,35.63
2018-12-16T19:54:17.914Z,34.23
2018-12-16T19:56:45.426Z,33.02
2018-12-16T19:59:13.847Z,36.15
2018-12-16T20:01:42.326Z,34.10
2018-12-16T20:04:18.985Z,37.50
2018-12-16T20:06:47.647Z,32.55
2018-12-16T20:09:16.164Z,40.12
2018-12-16T20:11:44.722Z,34.40
2018-12-16T20:14:13.238Z,35.45
2018-12-16T20:16:41.669Z,32.73
2018-12-16T20:19:10.129Z,31.62
2018-12-16T20:21:38.791Z,30.20
2018-12-16T20:24:07.433Z,34.23
2018-12-16T20:26:35.830Z,34.75
2018-12-16T20:29:04.349Z,38.10
2018-12-16T20:31:32.802Z,35.13
2018-12-16T20:34:00.286Z,35.13
2018-12-16T20:36:29.242Z,31.15
2018-12-16T20:38:57.785Z,30.90
2018-12-16T20:41:26.288Z,34.27
2018-12-16T20:43:54.824Z,29.90
2018-12-16T20:46:23.385Z,35.40
2018-12-16T20:48:51.735Z,34.80
2018-12-16T20:51:20.820Z,36.83
2018-12-16T20:53:49.220Z,36.20
2018-12-16T20:56:17.645Z,36.15
2018-12-16T20:58:46.168Z,29.98
2018-12-16T21:01:14.674Z,33.58
2018-12-16T21:03:43.225Z,32.88
2018-12-16T21:06:11.656Z,31.93
2018-12-16T21:08:39.981Z,32.83
2018-12-16T21:11:14.157Z,27.70
2018-12-16T21:13:48.473Z,34.43
2018-12-16T21:17:23.160Z,28.65
2018-12-16T21:19:50.793Z,26.85
2018-12-16T21:22:18.143Z,32.23
2018-12-16T21:24:45.465Z,32.58
2018-12-16T21:27:13.455Z,27.37
2018-12-16T21:29:40.813Z,33.53
2018-12-16T21:32:08.331Z,34.08
2018-12-16T21:34:36.722Z,38.50
2018-12-16T21:37:04.040Z,34.20
2018-12-16T21:39:31.531Z,34.30
2018-12-16T21:41:58.911Z,32.30
2018-12-16T21:44:26.267Z,36.90
2018-12-16T21:46:53.624Z,32.93
2018-12-16T21:49:21.298Z,29.92
2018-12-16T21:51:49.246Z,32.25
2018-12-16T21:54:16.665Z,29.00
2018-12-16T21:56:44.071Z,36.38
2018-12-16T21:59:11.431Z,36.58
2018-12-16T22:01:38.875Z,34.13
2018-12-16T22:04:06.204Z,32.80
2018-12-16T22:06:33.986Z,34.35
2018-12-16T22:09:01.277Z,28.40
2018-12-16T22:11:28.608Z,29.72
2018-12-16T22:13:56.066Z,33.15
2018-12-16T22:16:23.353Z,31.90
2018-12-16T22:18:50.820Z,31.35
2018-12-16T22:21:18.141Z,33.98
2018-12-16T22:23:45.486Z,30.65
2018-12-16T22:26:13.646Z,28.80
2018-12-16T22:28:41.063Z,31.42
2018-12-16T22:31:08.623Z,35.58
2018-12-16T22:33:36.373Z,25.55
2018-12-16T22:36:03.803Z,23.95
2018-12-16T22:38:31.152Z,36.85
2018-12-16T22:40:58.777Z,29.27
2018-12-16T22:43:26.080Z,25.95
2018-12-16T22:45:53.366Z,25.15
2018-12-16T22:48:20.713Z,25.62
2018-12-16T22:50:48.132Z,22.22
2018-12-16T22:53:15.521Z,26.30
2018-12-16T22:55:43.041Z,24.57
2018-12-16T22:58:10.458Z,26.57
2018-12-16T23:00:42.842Z,23.67
2018-12-16T23:03:10.230Z,25.12
2018-12-16T23:05:37.595Z,22.65
2018-12-16T23:08:04.937Z,27.65
2018-12-16T23:10:32.274Z,28.10
2018-12-16T23:12:59.609Z,21.30
2018-12-16T23:15:26.936Z,23.70
2018-12-16T23:17:54.290Z,21.87
2018-12-16T23:20:23.646Z,25.10
2018-12-16T23:22:51.026Z,20.40
2018-12-16T23:25:18.626Z,23.83
2018-12-16T23:27:45.937Z,19.73
2018-12-16T23:30:13.374Z,19.02
2018-12-16T23:32:40.921Z,22.10
2018-12-16T23:35:08.309Z,25.85
2018-12-16T23:37:35.693Z,21.85
2018-12-16T23:40:04.449Z,27.55
2018-12-16T23:42:32.865Z,23.07
2018-12-16T23:45:01.298Z,25.90
2018-12-16T23:47:29.620Z,27.13
2018-12-16T23:49:58.165Z,30.35
2018-12-16T23:52:26.680Z,22.73
2018-12-16T23:54:55.149Z,27.27
2018-12-16T23:57:25.661Z,23.30
2018-12-16T23:59:53.348Z,22.32
